Beaumont, Mississippi
Current Conditions -  °F | °C
As of 7:36 AM on Sunday 23 Nov 2014 (Local Time) from KHBG Reporting Station
Moderate Rain Moderate Rain  
Wind Chill: 61°   Ceiling: 200
Heat Index: 61°   Visibility: 1.7mi
Dew Point: 60°   Wind: 0mph
Humidity: 97%   Direction: NA
Pressure: 29.76"   Gusts: NA
Location:  31.17°N, 88.92°W
Report Text: KHBG 231336Z AUTO 00000KT 1 3/4SM RA BR OVC002 16/16 A2976 RMK AO2 LTG DSNT SE AND S P0003 T01610156
Loading
Personal Weather Stations






























Interactive Weather Map New forecast layout! Learn more

10-Day Weather Forecast

Advertisements
Track Severe Weather on mobile